Time;durP1;ratioP1;P1;durP2;ratioP2;P2;SDS_P1;SDS_P2;PMS_P1;PMS_P2;Temp;Humidity;BMP_temperature;BMP_pressure;BME280_temperature;BME280_humidity;BME280_pressure;Samples;Min_cycle;Max_cycle;Signal;HPM_P1;HPM_P2
2021/10/29 00:01:05;;;;;;;5.88;2.03;;;19.10;73.20;;;;;;5077020;28;20024;-73
2021/10/29 00:03:31;;;;;;;7.15;1.85;;;19.20;73.30;;;;;;5073263;28;20035;-75
2021/10/29 00:05:59;;;;;;;5.40;1.20;;;19.10;73.20;;;;;;5083290;28;20409;-68
2021/10/29 00:08:25;;;;;;;4.53;1.13;;;19.10;73.30;;;;;;5073301;28;20023;-74
2021/10/29 00:10:51;;;;;;;4.95;1.60;;;19.10;73.00;;;;;;5081710;28;20051;-69
2021/10/29 00:13:18;;;;;;;12.30;2.55;;;19.10;72.80;;;;;;5078092;28;20034;-68
2021/10/29 00:15:45;;;;;;;8.13;1.52;;;19.00;72.80;;;;;;5083996;28;20465;-68
2021/10/29 00:18:11;;;;;;;4.43;2.33;;;19.10;72.50;;;;;;5074586;28;20099;-68
2021/10/29 00:20:37;;;;;;;5.65;1.30;;;19.10;72.50;;;;;;5079915;28;20031;-68
2021/10/29 00:23:04;;;;;;;4.18;1.38;;;19.10;72.50;;;;;;5080575;28;20509;-73
2021/10/29 00:25:31;;;;;;;4.93;1.52;;;19.00;72.40;;;;;;5077990;28;20032;-68
2021/10/29 00:27:58;;;;;;;5.57;1.30;;;19.00;72.50;;;;;;5077935;28;20017;-67
2021/10/29 00:30:24;;;;;;;9.05;1.98;;;19.00;72.50;;;;;;5079840;28;20025;-68
2021/10/29 00:32:51;;;;;;;2.70;1.38;;;19.00;72.30;;;;;;5070328;28;20012;-68
2021/10/29 00:35:17;;;;;;;7.68;1.35;;;19.00;72.50;;;;;;5079487;28;20100;-69
2021/10/29 00:37:44;;;;;;;6.03;1.50;;;18.90;72.70;;;;;;5086007;28;20023;-67
2021/10/29 00:40:12;;;;;;;10.40;1.80;;;19.00;72.60;;;;;;5077687;28;20062;-68
2021/10/29 00:42:40;;;;;;;4.80;1.80;;;18.90;72.50;;;;;;5082588;28;20078;-68
2021/10/29 00:45:09;;;;;;;8.23;2.10;;;18.90;72.40;;;;;;5075312;28;20351;-68
2021/10/29 00:47:35;;;;;;;6.13;1.40;;;18.90;72.30;;;;;;5084952;28;20016;-70
2021/10/29 00:50:04;;;;;;;6.07;1.50;;;18.90;72.00;;;;;;5076545;28;20013;-67
2021/10/29 00:52:30;;;;;;;7.40;1.80;;;18.90;72.20;;;;;;5080787;28;20474;-72
2021/10/29 00:54:57;;;;;;;5.25;1.17;;;18.90;72.30;;;;;;5073499;28;20099;-68
2021/10/29 00:57:25;;;;;;;5.13;1.40;;;18.90;71.90;;;;;;5079805;28;20027;-69
2021/10/29 00:59:52;;;;;;;3.60;1.00;;;18.90;71.70;;;;;;5073114;28;20398;-69
2021/10/29 01:02:18;;;;;;;5.65;1.88;;;18.90;71.70;;;;;;5079929;28;20072;-68
2021/10/29 01:04:45;;;;;;;9.63;1.73;;;18.90;71.60;;;;;;5077345;28;20027;-76
2021/10/29 01:07:12;;;;;;;6.18;1.40;;;18.90;71.50;;;;;;5076684;28;20017;-70
2021/10/29 01:09:39;;;;;;;6.70;1.33;;;18.80;71.00;;;;;;5067660;28;20359;-72
2021/10/29 01:12:07;;;;;;;4.55;1.33;;;18.80;69.50;;;;;;5073750;28;20386;-75
2021/10/29 01:14:33;;;;;;;6.45;1.00;;;18.90;68.90;;;;;;5085096;28;20024;-69
2021/10/29 01:17:00;;;;;;;3.63;1.50;;;18.90;68.90;;;;;;5074938;28;20101;-76
2021/10/29 01:19:32;;;;;;;3.78;1.10;;;18.80;68.80;;;;;;5076858;28;20017;-77
2021/10/29 01:21:59;;;;;;;4.47;1.48;;;18.90;69.20;;;;;;5068089;28;20410;-70
2021/10/29 01:24:25;;;;;;;2.63;1.20;;;18.80;69.40;;;;;;5082343;28;20115;-68
2021/10/29 01:26:52;;;;;;;5.18;1.30;;;18.90;69.50;;;;;;5073907;28;20032;-70
2021/10/29 01:29:20;;;;;;;5.45;2.15;;;18.90;69.50;;;;;;5075655;28;20028;-69
2021/10/29 01:31:47;;;;;;;4.68;1.30;;;18.90;69.80;;;;;;5066396;28;20059;-76
2021/10/29 01:34:14;;;;;;;4.45;1.38;;;18.90;70.00;;;;;;5078121;28;20088;-69
2021/10/29 01:36:41;;;;;;;5.20;1.42;;;18.90;70.10;;;;;;5077254;28;20052;-68
2021/10/29 01:39:07;;;;;;;8.65;1.23;;;18.90;70.00;;;;;;5079888;28;20110;-68
2021/10/29 01:41:34;;;;;;;4.82;1.17;;;18.90;70.20;;;;;;5073434;28;20086;-68
2021/10/29 01:44:02;;;;;;;3.65;1.27;;;18.90;70.30;;;;;;5072318;28;20025;-68
2021/10/29 01:46:29;;;;;;;4.05;1.38;;;18.90;70.50;;;;;;5074057;28;20020;-67
2021/10/29 01:48:56;;;;;;;4.22;1.65;;;19.00;70.70;;;;;;5078178;28;20019;-71
2021/10/29 01:51:22;;;;;;;8.05;1.75;;;18.90;70.90;;;;;;5076372;28;20031;-69
2021/10/29 01:53:49;;;;;;;5.70;1.52;;;18.90;71.20;;;;;;5077638;28;20017;-75
2021/10/29 01:56:15;;;;;;;4.95;1.30;;;18.90;71.40;;;;;;5070624;28;20020;-75
2021/10/29 01:58:42;;;;;;;5.93;1.30;;;18.90;71.40;;;;;;5076506;28;20107;-72
2021/10/29 02:01:09;;;;;;;5.68;1.67;;;18.90;71.40;;;;;;5078344;28;20016;-76
2021/10/29 02:03:35;;;;;;;10.32;2.25;;;19.00;71.40;;;;;;5069604;28;20021;-75
2021/10/29 04:30:48;;;;;;;4.25;1.00;;;18.00;79.80;;;;;;5082805;27;20106;-66
2021/10/29 04:33:15;;;;;;;1.80;1.20;;;18.40;80.20;;;;;;5067658;28;20028;-69
2021/10/29 04:35:44;;;;;;;29.13;22.80;;;18.40;80.00;;;;;;5067381;28;20017;-68
2021/10/29 04:38:12;;;;;;;7.65;5.32;;;18.50;80.20;;;;;;5071081;28;20594;-70
2021/10/29 04:40:40;;;;;;;6.32;2.85;;;18.50;79.80;;;;;;5068835;28;20020;-70
2021/10/29 04:43:09;;;;;;;2.42;1.42;;;18.60;79.90;;;;;;5073854;28;20032;-74
2021/10/29 04:45:36;;;;;;;2.75;0.90;;;18.60;80.00;;;;;;5066368;28;20021;-74
2021/10/29 04:48:03;;;;;;;8.25;1.27;;;18.60;80.30;;;;;;5070840;28;20143;-70
2021/10/29 04:50:31;;;;;;;4.72;1.05;;;18.60;80.40;;;;;;5064972;28;20086;-71
2021/10/29 04:52:58;;;;;;;3.13;1.30;;;18.60;80.60;;;;;;5068574;28;20017;-65
2021/10/29 04:55:25;;;;;;;3.15;0.70;;;18.60;80.60;;;;;;5067229;28;20132;-70
2021/10/29 04:57:52;;;;;;;6.47;1.25;;;18.70;80.60;;;;;;5066198;28;20029;-73
2021/10/29 05:00:19;;;;;;;3.95;1.00;;;18.70;80.80;;;;;;5068895;28;20472;-65
2021/10/29 05:02:46;;;;;;;3.40;1.00;;;18.80;80.80;;;;;;5068366;28;20028;-67
2021/10/29 05:05:13;;;;;;;3.30;1.10;;;18.80;80.60;;;;;;5068439;28;20017;-71
2021/10/29 05:07:39;;;;;;;4.82;1.25;;;18.80;80.70;;;;;;5069034;28;20056;-73
2021/10/29 05:10:07;;;;;;;2.13;0.80;;;18.80;80.70;;;;;;5075733;28;20024;-64
2021/10/29 05:12:33;;;;;;;3.97;1.42;;;18.90;80.80;;;;;;5068369;28;20023;-65
2021/10/29 05:15:00;;;;;;;3.05;1.02;;;18.90;80.70;;;;;;5067104;28;20075;-73
2021/10/29 05:17:27;;;;;;;2.28;0.65;;;18.90;80.60;;;;;;5071213;28;20822;-71
2021/10/29 05:19:53;;;;;;;3.05;0.75;;;19.00;80.70;;;;;;5076701;28;20147;-68
2021/10/29 05:22:20;;;;;;;2.33;0.90;;;19.00;80.50;;;;;;5069718;28;20070;-72
2021/10/29 05:24:46;;;;;;;3.50;1.02;;;19.00;80.40;;;;;;5068124;28;20108;-75
2021/10/29 05:27:13;;;;;;;2.42;0.80;;;19.10;80.40;;;;;;5073627;28;20467;-70
2021/10/29 05:29:39;;;;;;;2.00;0.70;;;19.10;80.30;;;;;;5070961;28;20406;-75
2021/10/29 05:32:07;;;;;;;3.95;0.75;;;19.10;80.20;;;;;;5057254;28;20024;-70
2021/10/29 05:34:33;;;;;;;5.05;1.05;;;19.10;80.10;;;;;;5054743;28;20028;-71
2021/10/29 05:37:00;;;;;;;1.45;0.60;;;19.10;80.30;;;;;;5060604;28;20112;-72
2021/10/29 05:39:27;;;;;;;1.98;0.60;;;19.10;80.30;;;;;;5057796;28;20553;-74
2021/10/29 05:41:53;;;;;;;1.00;0.45;;;19.10;80.30;;;;;;5059022;28;20115;-75
2021/10/29 05:44:20;;;;;;;2.80;0.80;;;19.20;80.20;;;;;;5056433;28;20029;-74
2021/10/29 05:46:47;;;;;;;2.35;0.50;;;19.10;80.50;;;;;;5054037;28;20016;-74
2021/10/29 05:49:15;;;;;;;1.73;0.90;;;19.10;80.90;;;;;;5051666;28;20384;-71
2021/10/29 05:51:53;;;;;;;2.75;0.63;;;19.10;80.90;;;;;;5057584;28;20094;-73
2021/10/29 05:57:03;;;;;;;2.45;0.77;;;19.10;81.70;;;;;;5054613;28;20025;-74
2021/10/29 05:59:33;;;;;;;1.63;0.52;;;19.10;81.90;;;;;;5049949;28;20029;-71
2021/10/29 06:02:00;;;;;;;1.48;0.45;;;19.10;82.10;;;;;;5058192;28;20967;-72
2021/10/29 06:04:26;;;;;;;1.55;1.05;;;19.10;81.80;;;;;;5050508;28;20022;-74
2021/10/29 06:06:55;;;;;;;2.90;1.25;;;19.10;81.90;;;;;;5054129;28;20013;-74
2021/10/29 06:09:21;;;;;;;0.68;0.65;;;19.10;81.90;;;;;;5058101;28;20029;-76
2021/10/29 06:11:48;;;;;;;2.40;0.80;;;19.10;81.90;;;;;;5049728;28;20016;-74
2021/10/29 06:14:15;;;;;;;1.83;0.80;;;19.20;82.10;;;;;;5056468;28;20013;-74
2021/10/29 06:16:42;;;;;;;2.47;0.85;;;19.20;82.00;;;;;;5055347;28;20512;-75
2021/10/29 06:19:08;;;;;;;2.13;0.55;;;19.20;82.10;;;;;;5057860;28;20116;-74
2021/10/29 06:21:41;;;;;;;2.55;0.60;;;19.20;81.90;;;;;;5054230;28;20021;-75
2021/10/29 06:24:12;;;;;;;0.73;0.50;;;19.30;82.00;;;;;;5059525;28;20021;-74
2021/10/29 06:26:47;;;;;;;1.17;0.52;;;19.30;82.00;;;;;;5053678;28;20029;-72
2021/10/29 06:29:13;;;;;;;;;;;19.40;81.90;;;;;;5056135;28;20045;-73
2021/10/29 06:31:41;;;;;;;1.65;0.68;;;19.40;82.00;;;;;;5052450;28;19909;-74
2021/10/29 06:34:09;;;;;;;0.75;0.75;;;19.50;82.00;;;;;;5053767;28;20103;-75
2021/10/29 06:36:37;;;;;;;1.98;0.93;;;19.50;81.80;;;;;;5053763;28;20017;-69
2021/10/29 06:39:06;;;;;;;3.80;1.30;;;19.50;81.70;;;;;;5054450;28;20040;-70
2021/10/29 06:41:33;;;;;;;4.18;1.10;;;19.50;81.60;;;;;;5047351;28;20017;-72
2021/10/29 07:00:27;;;;;;;2.13;0.60;;;19.80;80.90;;;;;;5049738;28;20040;-71
2021/10/29 07:41:19;;;;;;;1.35;0.60;;;20.40;79.50;;;;;;5049170;28;20079;-70
2021/10/29 07:43:49;;;;;;;3.28;1.00;;;20.60;78.30;;;;;;5053215;28;20024;-73
2021/10/29 07:46:16;;;;;;;1.73;0.77;;;20.70;78.20;;;;;;5058101;28;20100;-68
2021/10/29 07:48:44;;;;;;;0.70;0.40;;;20.80;77.70;;;;;;5050006;28;20036;-72
2021/10/29 07:51:12;;;;;;;4.05;0.57;;;21.00;77.40;;;;;;5055090;28;20079;-73
2021/10/29 07:53:38;;;;;;;7.25;1.05;;;21.10;77.10;;;;;;5048598;28;20383;-71
2021/10/29 07:56:06;;;;;;;1.38;0.50;;;21.10;76.30;;;;;;5050057;28;20027;-73
2021/10/29 07:58:35;;;;;;;1.67;1.00;;;21.20;75.60;;;;;;5052931;28;20041;-73
2021/10/29 08:01:02;;;;;;;2.25;0.70;;;21.30;75.60;;;;;;5052053;28;20408;-72
2021/10/29 08:03:30;;;;;;;2.88;0.57;;;21.20;75.30;;;;;;5051406;28;20021;-70
2021/10/29 08:05:57;;;;;;;2.67;1.30;;;21.30;75.20;;;;;;5050759;28;20478;-73
2021/10/29 08:08:23;;;;;;;5.18;1.40;;;21.30;74.90;;;;;;5052104;28;20471;-70
2021/10/29 08:10:50;;;;;;;11.00;1.67;;;21.30;75.00;;;;;;5056096;28;20062;-68
2021/10/29 08:13:17;;;;;;;4.63;1.80;;;21.40;75.00;;;;;;5053853;28;20021;-72
2021/10/29 08:15:45;;;;;;;1.42;0.88;;;21.50;74.90;;;;;;5056561;28;20016;-71
2021/10/29 08:18:12;;;;;;;2.65;1.00;;;21.50;74.50;;;;;;5053641;28;20476;-70
2021/10/29 08:20:40;;;;;;;4.70;1.42;;;21.70;74.50;;;;;;5053831;28;20025;-73
2021/10/29 08:23:11;;;;;;;4.40;1.00;;;21.80;73.80;;;;;;5053555;28;20020;-73
2021/10/29 08:25:38;;;;;;;3.40;0.98;;;21.90;73.80;;;;;;5052697;28;20875;-72
2021/10/29 08:28:05;;;;;;;2.92;1.35;;;21.90;72.90;;;;;;5054527;28;20612;-72
2021/10/29 08:30:32;;;;;;;3.22;1.30;;;21.90;72.50;;;;;;5052320;28;20037;-68
2021/10/29 08:32:59;;;;;;;3.47;1.00;;;21.80;72.40;;;;;;5058466;28;20046;-67
2021/10/29 08:35:26;;;;;;;3.33;1.73;;;21.90;72.80;;;;;;5047685;28;20028;-70
2021/10/29 08:37:53;;;;;;;4.57;1.30;;;22.00;72.60;;;;;;5053185;28;20036;-67
2021/10/29 08:40:22;;;;;;;4.07;1.30;;;22.10;72.10;;;;;;5049255;28;20020;-72
2021/10/29 08:42:49;;;;;;;4.70;2.28;;;22.20;71.60;;;;;;5051264;28;20268;-72
2021/10/29 08:45:17;;;;;;;6.10;1.30;;;22.30;71.20;;;;;;5053358;28;20530;-71
2021/10/29 08:47:45;;;;;;;3.47;1.65;;;22.50;70.30;;;;;;5050004;28;20103;-70
2021/10/29 08:50:16;;;;;;;4.95;0.95;;;22.50;71.00;;;;;;5051752;28;20063;-71
2021/10/29 08:52:44;;;;;;;3.17;1.23;;;22.60;70.90;;;;;;5055952;28;20025;-71
2021/10/29 08:55:13;;;;;;;6.50;1.40;;;22.70;71.20;;;;;;5050580;28;20027;-70
2021/10/29 08:57:40;;;;;;;5.18;2.10;;;22.70;70.60;;;;;;5050925;28;20051;-70
2021/10/29 09:00:15;;;;;;;4.28;1.27;;;22.70;69.00;;;;;;5046857;28;20625;-71
2021/10/29 09:02:55;;;;;;;4.55;1.40;;;22.70;69.70;;;;;;5054235;28;20037;-72
2021/10/29 09:05:40;;;;;;;5.45;1.55;;;22.70;69.10;;;;;;5049001;28;20062;-73
2021/10/29 09:08:16;;;;;;;6.93;2.00;;;22.70;68.40;;;;;;5054894;28;20044;-68
2021/10/29 09:11:23;;;;;;;4.65;1.65;;;22.80;69.00;;;;;;5052282;28;20027;-70
2021/10/29 09:31:35;;;;;;;7.30;1.45;;;23.00;68.80;;;;;;5045649;28;20044;-72
2021/10/29 09:34:09;;;;;;;8.40;2.20;;;22.90;69.00;;;;;;5054469;28;20021;-68
2021/10/29 09:36:54;;;;;;;2.67;1.20;;;22.90;69.90;;;;;;5054220;28;20029;-67
2021/10/29 09:39:22;;;;;;;3.90;1.35;;;23.00;69.50;;;;;;5049448;28;20017;-68
2021/10/29 09:42:11;;;;;;;8.88;2.05;;;23.10;68.70;;;;;;5057093;28;20028;-68
2021/10/29 09:44:46;;;;;;;4.10;1.30;;;23.20;68.80;;;;;;5050709;28;20074;-67
2021/10/29 09:47:19;;;;;;;2.92;1.10;;;23.20;68.80;;;;;;5053829;28;20423;-67
2021/10/29 09:50:05;;;;;;;5.68;1.67;;;23.20;69.20;;;;;;5052985;28;20032;-69
2021/10/29 09:57:34;;;;;;;6.18;2.20;;;23.10;68.60;;;;;;5053000;28;20035;-68
2021/10/29 10:00:10;;;;;;;4.80;1.13;;;23.20;69.10;;;;;;5056659;28;20052;-71
2021/10/29 10:02:41;;;;;;;3.08;1.20;;;23.10;68.60;;;;;;5057743;28;20378;-67
2021/10/29 10:05:08;;;;;;;3.97;1.92;;;23.10;67.70;;;;;;5049690;28;20032;-68
2021/10/29 13:03:25;;;;;;;2.45;1.13;;;23.30;70.90;;;;;;5105009;28;20039;-73
2021/10/29 13:05:56;;;;;;;3.13;2.13;;;23.30;71.10;;;;;;5105813;28;20043;-73
2021/10/29 13:08:24;;;;;;;2.72;1.20;;;23.30;71.00;;;;;;5105663;28;20024;-68
2021/10/29 13:10:58;;;;;;;5.28;1.83;;;23.40;71.20;;;;;;5105218;28;20531;-71
2021/10/29 13:16:01;;;;;;;3.05;0.90;;;23.50;69.90;;;;;;5105565;28;20061;-73
2021/10/29 13:18:37;;;;;;;3.80;1.42;;;23.50;70.10;;;;;;5102995;28;20028;-72
2021/10/29 13:21:59;;;;;;;3.03;1.13;;;23.60;70.30;;;;;;5106743;28;20016;-73
2021/10/29 13:34:19;;;;;;;6.63;1.10;;;23.50;69.60;;;;;;5105645;28;20734;-74
2021/10/29 13:35:18;;;;;;;5.00;0.88;;;23.50;69.30;;;;;;5090824;28;20140;-68
2021/10/29 13:51:20;;;;;;;2.67;1.35;;;23.30;68.70;;;;;;5092272;28;20031;-72
2021/10/29 13:57:04;;;;;;;7.40;2.05;;;23.30;68.50;;;;;;5089983;28;20077;-72
2021/10/29 14:31:53;;;;;;;2.70;2.08;;;23.60;69.60;;;;;;5091852;28;20651;-68
2021/10/29 14:34:24;;;;;;;2.42;1.42;;;23.60;69.80;;;;;;5090599;28;20056;-73
2021/10/29 14:39:24;;;;;;;2.67;1.02;;;23.40;70.20;;;;;;5091266;28;20501;-74
2021/10/29 14:42:05;;;;;;;4.23;0.97;;;23.30;70.50;;;;;;5089979;28;20363;-70
2021/10/29 14:44:40;;;;;;;5.43;1.75;;;23.20;70.60;;;;;;5085063;28;20012;-73
2021/10/29 14:52:31;;;;;;;4.97;1.25;;;23.00;71.20;;;;;;5090766;28;20020;-71
2021/10/29 15:06:21;;;;;;;2.03;0.95;;;22.80;72.10;;;;;;5087906;28;20454;-74
2021/10/29 15:41:06;;;;;;;3.75;1.25;;;22.30;75.00;;;;;;5089137;28;20046;-70
2021/10/29 15:44:33;;;;;;;2.55;1.23;;;22.20;77.00;;;;;;5048052;28;20036;-74
2021/10/29 15:47:49;;;;;;;3.65;1.30;;;22.10;77.10;;;;;;5087853;28;20031;-69
2021/10/29 15:50:55;;;;;;;2.85;1.48;;;22.20;77.20;;;;;;5088864;28;20024;-71
2021/10/29 15:54:06;;;;;;;4.60;2.08;;;22.10;77.80;;;;;;5087953;28;20023;-75
2021/10/29 15:57:12;;;;;;;5.80;1.25;;;22.20;77.90;;;;;;5086504;28;20012;-74
2021/10/29 16:00:39;;;;;;;6.13;1.42;;;22.10;78.10;;;;;;5086302;28;20020;-68
2021/10/29 16:19:17;;;;;;;4.00;1.35;;;22.20;78.40;;;;;;5029027;28;20043;-72
2021/10/29 16:21:45;;;;;;;2.17;1.33;;;22.20;78.40;;;;;;5039757;28;20025;-72
2021/10/29 16:24:11;;;;;;;3.33;0.95;;;22.10;78.20;;;;;;5032730;28;20055;-68
2021/10/29 16:26:38;;;;;;;24.65;3.10;;;22.20;78.40;;;;;;5036537;28;20112;-73
2021/10/29 16:29:08;;;;;;;6.50;1.13;;;22.10;78.30;;;;;;5037176;28;20677;-70
2021/10/29 16:31:42;;;;;;;2.97;1.38;;;22.10;78.80;;;;;;5038328;28;20581;-74
2021/10/29 16:34:09;;;;;;;37.60;33.20;;;22.20;79.10;;;;;;5035911;28;20053;-69
2021/10/29 16:36:36;;;;;;;29.50;23.88;;;22.10;79.20;;;;;;5041656;28;20025;-75
2021/10/29 16:39:02;;;;;;;4.35;3.75;;;22.20;78.90;;;;;;5039300;28;20476;-84
2021/10/29 16:41:29;;;;;;;2.88;1.00;;;22.10;78.80;;;;;;5043820;28;20021;-80
2021/10/29 16:43:55;;;;;;;1.45;0.80;;;22.10;78.80;;;;;;5066739;28;20093;-74
2021/10/29 16:46:22;;;;;;;2.83;1.00;;;22.10;78.80;;;;;;5088868;28;20023;-75
2021/10/29 16:48:48;;;;;;;1.50;0.80;;;21.90;79.10;;;;;;5086977;28;20031;-70
2021/10/29 16:51:16;;;;;;;1.92;1.13;;;21.90;79.30;;;;;;5087836;28;20604;-68
2021/10/29 16:53:44;;;;;;;2.30;0.95;;;21.90;79.00;;;;;;5088100;28;20036;-69
2021/10/29 16:56:12;;;;;;;9.02;1.50;;;21.80;79.50;;;;;;5085105;28;20510;-67
2021/10/29 16:58:41;;;;;;;29.25;26.02;;;21.70;79.90;;;;;;5087466;28;20099;-72
2021/10/29 17:01:08;;;;;;;18.02;13.43;;;21.70;80.30;;;;;;5087370;28;20028;-75
2021/10/29 17:03:35;;;;;;;4.05;1.98;;;21.70;80.60;;;;;;5085795;28;20028;-79
2021/10/29 17:06:01;;;;;;;4.82;1.50;;;21.70;80.90;;;;;;5087311;28;20474;-77
2021/10/29 17:08:28;;;;;;;6.10;1.45;;;21.80;80.80;;;;;;5086782;28;20023;-67
2021/10/29 17:10:54;;;;;;;5.75;2.50;;;21.80;81.10;;;;;;5089830;28;20016;-75
2021/10/29 17:13:21;;;;;;;12.57;6.78;;;21.80;80.50;;;;;;5091575;28;20016;-74
2021/10/29 17:15:47;;;;;;;14.18;12.05;;;21.70;80.90;;;;;;5085445;28;20019;-67
2021/10/29 17:18:14;;;;;;;14.15;5.88;;;21.70;80.90;;;;;;5087445;28;20100;-72
2021/10/29 17:20:40;;;;;;;12.82;3.72;;;21.70;80.80;;;;;;5088789;28;20485;-79
2021/10/29 17:23:07;;;;;;;7.85;2.97;;;21.70;80.80;;;;;;5091731;28;20028;-81
2021/10/29 17:25:33;;;;;;;7.40;3.42;;;21.70;80.80;;;;;;5085571;28;20474;-80
2021/10/29 17:28:00;;;;;;;6.95;2.50;;;21.60;80.80;;;;;;5091040;28;20478;-72
2021/10/29 17:30:27;;;;;;;4.72;2.50;;;21.60;81.10;;;;;;5086149;28;20103;-81
2021/10/29 17:32:54;;;;;;;4.95;1.85;;;21.70;80.60;;;;;;5089666;28;20101;-71
2021/10/29 17:35:21;;;;;;;4.60;2.00;;;21.60;78.50;;;;;;5090095;28;20031;-75
2021/10/29 17:37:48;;;;;;;5.82;2.10;;;21.60;77.70;;;;;;5087863;28;20379;-69
2021/10/29 17:40:15;;;;;;;6.82;2.25;;;21.60;76.50;;;;;;5089647;28;20023;-81
2021/10/29 17:42:43;;;;;;;56.20;22.92;;;21.70;76.10;;;;;;5089776;28;20705;-71
2021/10/29 17:45:13;;;;;;;7.97;4.93;;;21.70;75.80;;;;;;5091166;28;20031;-71
2021/10/29 17:47:40;;;;;;;5.55;3.88;;;21.60;75.30;;;;;;5092628;28;20020;-78
2021/10/29 17:50:08;;;;;;;27.30;18.33;;;21.60;75.30;;;;;;5111489;28;20456;-76
2021/10/29 17:52:35;;;;;;;16.80;13.68;;;21.60;75.40;;;;;;5096044;28;20119;-74
2021/10/29 17:55:01;;;;;;;9.50;5.57;;;21.60;75.50;;;;;;5098053;28;20016;-87
2021/10/29 17:57:28;;;;;;;11.57;2.47;;;21.60;75.30;;;;;;5094738;28;20016;-73
2021/10/29 17:59:56;;;;;;;12.75;2.55;;;21.70;75.20;;;;;;5090768;28;20095;-78
2021/10/29 18:02:23;;;;;;;19.95;14.57;;;21.70;75.10;;;;;;5088023;28;20028;-74
2021/10/29 18:04:51;;;;;;;9.63;5.03;;;21.60;75.10;;;;;;5089504;28;20090;-79
2021/10/29 18:07:23;;;;;;;7.28;4.70;;;21.60;75.10;;;;;;5087902;28;20455;-74
2021/10/29 18:09:50;;;;;;;8.60;3.78;;;21.60;75.10;;;;;;5086882;28;20047;-70
2021/10/29 18:12:17;;;;;;;6.30;3.17;;;21.60;75.20;;;;;;5089024;28;20024;-76
2021/10/29 18:14:44;;;;;;;9.55;3.67;;;21.60;75.40;;;;;;5088887;28;20019;-75
2021/10/29 18:17:13;;;;;;;7.22;3.28;;;21.60;75.40;;;;;;5089542;28;20020;-77
2021/10/29 18:19:41;;;;;;;7.90;4.00;;;21.60;75.30;;;;;;5089085;28;20464;-70
2021/10/29 18:22:07;;;;;;;7.10;3.47;;;21.50;75.40;;;;;;5088295;28;20102;-73
2021/10/29 18:24:35;;;;;;;9.85;4.32;;;21.50;75.60;;;;;;5089608;28;20016;-77
2021/10/29 18:27:03;;;;;;;8.75;5.43;;;21.40;75.70;;;;;;5086802;28;20736;-72
2021/10/29 18:29:30;;;;;;;35.67;24.02;;;21.40;75.80;;;;;;5090859;28;20103;-68
2021/10/29 18:31:56;;;;;;;14.10;8.27;;;21.40;76.30;;;;;;5088059;28;20109;-68
2021/10/29 18:34:25;;;;;;;9.63;5.43;;;21.40;76.30;;;;;;5088036;28;20097;-77
2021/10/29 18:36:53;;;;;;;6.05;2.53;;;21.40;76.20;;;;;;5087469;28;20027;-76
2021/10/29 18:39:21;;;;;;;8.68;2.95;;;21.30;76.20;;;;;;5088855;28;20016;-67
2021/10/29 18:41:48;;;;;;;12.77;3.90;;;21.30;76.40;;;;;;5087524;28;20111;-73
2021/10/29 18:44:15;;;;;;;6.60;3.30;;;21.30;76.50;;;;;;5086763;28;20036;-70
2021/10/29 18:46:42;;;;;;;6.53;4.15;;;21.30;76.70;;;;;;5088865;28;20103;-67
2021/10/29 18:49:09;;;;;;;10.95;5.53;;;21.20;76.70;;;;;;5086044;28;20020;-71
2021/10/29 18:51:37;;;;;;;7.07;3.08;;;21.10;76.70;;;;;;5089414;28;20625;-76
2021/10/29 18:54:06;;;;;;;10.85;3.35;;;21.20;76.70;;;;;;5089666;28;20023;-67
2021/10/29 18:56:36;;;;;;;4.43;2.67;;;21.10;76.70;;;;;;5084790;28;20009;-73
2021/10/29 18:59:04;;;;;;;11.07;3.30;;;21.10;76.80;;;;;;5090430;28;20031;-67
2021/10/29 19:01:31;;;;;;;32.50;25.85;;;21.10;76.80;;;;;;5090414;28;20008;-73
2021/10/29 19:03:59;;;;;;;40.60;32.35;;;21.10;77.00;;;;;;5089447;28;20036;-71
2021/10/29 19:06:27;;;;;;;16.40;8.65;;;21.10;77.10;;;;;;5087546;28;20028;-78
2021/10/29 19:08:53;;;;;;;11.65;7.47;;;21.00;77.10;;;;;;5085650;28;20019;-78
2021/10/29 19:11:26;;;;;;;11.57;5.95;;;21.10;76.90;;;;;;5086373;28;20032;-71
2021/10/29 19:13:55;;;;;;;11.27;5.82;;;21.10;77.00;;;;;;5085670;28;20331;-77
2021/10/29 19:16:21;;;;;;;19.48;10.23;;;21.10;77.20;;;;;;5087753;28;20020;-79
2021/10/29 19:18:50;;;;;;;15.80;8.82;;;21.10;77.10;;;;;;5058976;28;20027;-73
2021/10/29 19:21:18;;;;;;;9.65;5.43;;;21.00;77.10;;;;;;5087194;28;20039;-72
2021/10/29 19:23:45;;;;;;;10.07;4.68;;;21.00;77.30;;;;;;5083937;28;20073;-74
2021/10/29 19:26:11;;;;;;;11.68;5.35;;;20.90;77.30;;;;;;5087948;28;20012;-76
2021/10/29 19:28:38;;;;;;;11.77;4.35;;;21.00;77.50;;;;;;5085465;28;20484;-75
2021/10/29 19:31:04;;;;;;;12.20;6.07;;;20.90;77.60;;;;;;5085261;28;20386;-77
2021/10/29 19:33:31;;;;;;;45.97;36.33;;;20.90;77.80;;;;;;5085838;28;20387;-78
2021/10/29 19:36:10;;;;;;;27.15;20.25;;;20.90;77.90;;;;;;5084986;28;20020;-72
2021/10/29 19:38:38;;;;;;;15.40;9.35;;;20.90;78.00;;;;;;5076626;28;20024;-73
2021/10/29 19:41:05;;;;;;;13.75;6.03;;;20.90;77.80;;;;;;5080697;28;20028;-77
2021/10/29 19:43:33;;;;;;;9.43;3.95;;;20.90;77.70;;;;;;5083231;28;20197;-76
2021/10/29 19:45:59;;;;;;;6.65;3.33;;;20.90;77.70;;;;;;5083871;28;20135;-74
2021/10/29 19:48:26;;;;;;;7.32;2.80;;;20.80;77.80;;;;;;5083867;28;20405;-75
2021/10/29 19:50:53;;;;;;;7.13;3.88;;;20.80;77.90;;;;;;5084062;28;20405;-76
2021/10/29 19:53:24;;;;;;;8.32;4.28;;;20.90;77.90;;;;;;5081284;28;20012;-77
2021/10/29 19:55:51;;;;;;;6.18;2.17;;;20.80;77.90;;;;;;5084494;28;20020;-75
2021/10/29 19:58:17;;;;;;;6.63;2.70;;;20.80;78.00;;;;;;5084793;28;20020;-77
2021/10/29 20:00:46;;;;;;;18.73;3.97;;;20.80;78.10;;;;;;5085285;28;20058;-73
2021/10/29 20:03:13;;;;;;;8.25;3.25;;;20.80;78.30;;;;;;5084187;28;20493;-79
2021/10/29 20:05:41;;;;;;;3.90;3.10;;;20.80;78.20;;;;;;5084084;28;20024;-75
2021/10/29 20:08:08;;;;;;;8.15;2.88;;;20.80;78.90;;;;;;5084278;28;20016;-76
2021/10/29 20:10:35;;;;;;;5.57;2.67;;;20.80;78.40;;;;;;5084616;28;20076;-75
2021/10/29 20:13:05;;;;;;;6.65;3.08;;;20.80;78.40;;;;;;5086019;28;20024;-77
2021/10/29 20:15:34;;;;;;;36.95;14.85;;;20.70;78.30;;;;;;5084081;28;20020;-77
2021/10/29 20:18:03;;;;;;;32.47;26.38;;;20.70;78.50;;;;;;5084797;28;20110;-78
2021/10/29 20:20:30;;;;;;;47.08;8.68;;;20.70;78.70;;;;;;5084184;28;20019;-77
2021/10/29 20:22:57;;;;;;;9.02;3.60;;;20.70;79.40;;;;;;5084827;28;20020;-78
2021/10/29 20:25:23;;;;;;;4.72;1.88;;;20.70;78.80;;;;;;5085770;28;20016;-73
2021/10/29 20:27:49;;;;;;;7.22;1.95;;;20.70;78.70;;;;;;5085351;28;20008;-68
2021/10/29 20:30:16;;;;;;;5.68;1.73;;;20.70;78.80;;;;;;5084768;28;20037;-74
2021/10/29 20:32:43;;;;;;;6.22;2.83;;;20.70;78.80;;;;;;5083960;28;20109;-76
2021/10/29 20:35:10;;;;;;;6.85;2.83;;;20.70;79.00;;;;;;5085992;28;20020;-77
2021/10/29 20:37:37;;;;;;;6.45;2.13;;;20.70;79.00;;;;;;5084532;28;20467;-77
2021/10/29 20:40:05;;;;;;;16.55;3.53;;;20.60;79.10;;;;;;5086305;28;20559;-74
2021/10/29 20:42:38;;;;;;;6.13;2.17;;;20.60;79.30;;;;;;5085239;28;20236;-77
2021/10/29 20:45:06;;;;;;;7.40;2.83;;;20.60;79.50;;;;;;5087168;28;20077;-72
2021/10/29 20:47:33;;;;;;;4.78;1.88;;;20.60;79.70;;;;;;5089827;28;20012;-75
2021/10/29 20:49:59;;;;;;;6.20;1.73;;;20.60;79.70;;;;;;5089232;28;20056;-69
2021/10/29 20:52:26;;;;;;;5.30;2.60;;;20.50;79.90;;;;;;5089544;28;20035;-77
2021/10/29 20:54:54;;;;;;;9.73;2.55;;;20.60;80.00;;;;;;5088633;28;20498;-74
2021/10/29 20:57:22;;;;;;;5.57;2.42;;;20.60;80.10;;;;;;5088174;28;20043;-70
2021/10/29 20:59:49;;;;;;;5.03;2.92;;;20.50;80.20;;;;;;5104377;28;20016;-73
2021/10/29 21:02:55;;;;;;;4.88;2.40;;;20.50;80.20;;;;;;5089503;28;20024;-68
2021/10/29 21:05:21;;;;;;;10.23;2.55;;;20.50;80.20;;;;;;5090723;28;20021;-75
2021/10/29 21:07:48;;;;;;;7.10;2.90;;;20.50;80.20;;;;;;5088503;28;20084;-75
2021/10/29 21:10:15;;;;;;;9.15;3.20;;;20.50;80.20;;;;;;5088674;28;20607;-73
2021/10/29 21:12:41;;;;;;;4.93;2.13;;;20.50;80.10;;;;;;5089347;28;20528;-78
2021/10/29 21:15:09;;;;;;;6.68;2.75;;;20.50;80.10;;;;;;5089026;28;20019;-75
2021/10/29 21:17:36;;;;;;;7.80;2.53;;;20.50;80.20;;;;;;5069228;28;20047;-68
2021/10/29 21:20:05;;;;;;;5.32;2.67;;;20.50;80.30;;;;;;5086659;28;20025;-70
2021/10/29 21:22:32;;;;;;;9.50;3.03;;;20.50;80.40;;;;;;5089856;28;20035;-67
2021/10/29 21:24:59;;;;;;;8.27;3.13;;;20.50;81.10;;;;;;5086936;28;20023;-68
2021/10/29 21:27:26;;;;;;;5.88;3.03;;;20.50;80.60;;;;;;5089546;28;20027;-75
2021/10/29 21:29:52;;;;;;;8.13;3.03;;;20.50;80.60;;;;;;5087747;28;20039;-68
2021/10/29 21:32:19;;;;;;;6.22;3.00;;;20.50;80.70;;;;;;5088708;28;20107;-78
2021/10/29 21:34:46;;;;;;;10.00;3.25;;;20.50;80.70;;;;;;5089184;28;20580;-70
2021/10/29 21:37:12;;;;;;;5.65;3.15;;;20.40;80.80;;;;;;5088590;28;20494;-69
2021/10/29 21:39:43;;;;;;;7.32;2.83;;;20.40;81.00;;;;;;5089460;28;20089;-78
2021/10/29 21:42:10;;;;;;;4.60;2.38;;;20.40;81.10;;;;;;5086887;28;20008;-69
2021/10/29 21:44:37;;;;;;;3.72;2.40;;;20.40;81.20;;;;;;5090100;28;20024;-73